sensor_id;sensor_type;location;lat;lon;timestamp;pressure;altitude;pressure_sealevel;temperature;humidity
43147;BME280;28752;48.266;7.402;2022-10-28T00:02:13;100094.63;;;13.52;100.00
43147;BME280;28752;48.266;7.402;2022-10-28T00:04:38;100078.25;;;13.46;100.00
43147;BME280;28752;48.266;7.402;2022-10-28T00:07:03;100087.25;;;13.45;100.00
43147;BME280;28752;48.266;7.402;2022-10-28T00:09:29;100094.78;;;13.50;100.00
43147;BME280;28752;48.266;7.402;2022-10-28T00:11:54;100091.25;;;13.49;100.00
43147;BME280;28752;48.266;7.402;2022-10-28T00:14:20;100080.69;;;13.40;100.00
43147;BME280;28752;48.266;7.402;2022-10-28T00:16:45;100093.53;;;13.44;100.00
43147;BME280;28752;48.266;7.402;2022-10-28T00:19:12;100092.44;;;13.37;100.00
43147;BME280;28752;48.266;7.402;2022-10-28T00:21:40;100097.78;;;13.37;100.00
43147;BME280;28752;48.266;7.402;2022-10-28T00:24:07;100098.78;;;13.36;100.00
43147;BME280;28752;48.266;7.402;2022-10-28T00:26:34;100079.34;;;13.26;100.00
43147;BME280;28752;48.266;7.402;2022-10-28T00:29:12;100080.47;;;13.23;100.00
43147;BME280;28752;48.266;7.402;2022-10-28T00:31:38;100091.78;;;13.25;100.00
43147;BME280;28752;48.266;7.402;2022-10-28T00:34:06;100095.44;;;13.24;100.00
43147;BME280;28752;48.266;7.402;2022-10-28T00:36:36;100094.72;;;13.22;100.00
43147;BME280;28752;48.266;7.402;2022-10-28T00:39:06;100092.50;;;13.18;100.00
43147;BME280;28752;48.266;7.402;2022-10-28T00:41:36;100099.75;;;13.25;100.00
43147;BME280;28752;48.266;7.402;2022-10-28T00:47:03;100097.81;;;13.27;100.00
43147;BME280;28752;48.266;7.402;2022-10-28T00:49:31;100110.53;;;13.33;100.00
43147;BME280;28752;48.266;7.402;2022-10-28T00:52:02;100104.94;;;13.37;100.00
43147;BME280;28752;48.266;7.402;2022-10-28T00:54:29;100095.53;;;13.32;100.00
43147;BME280;28752;48.266;7.402;2022-10-28T00:56:57;100103.81;;;13.29;100.00
43147;BME280;28752;48.266;7.402;2022-10-28T00:59:26;100093.31;;;13.28;100.00
43147;BME280;28752;48.266;7.402;2022-10-28T01:01:52;100095.53;;;13.32;100.00
43147;BME280;28752;48.266;7.402;2022-10-28T01:04:18;100092.19;;;13.30;100.00
43147;BME280;28752;48.266;7.402;2022-10-28T01:06:45;100090.34;;;13.31;100.00
43147;BME280;28752;48.266;7.402;2022-10-28T01:09:11;100085.34;;;13.28;100.00
43147;BME280;28752;48.266;7.402;2022-10-28T01:14:23;100087.31;;;13.26;100.00
43147;BME280;28752;48.266;7.402;2022-10-28T01:17:03;100080.59;;;13.22;100.00
43147;BME280;28752;48.266;7.402;2022-10-28T01:22:56;100088.50;;;13.13;100.00
43147;BME280;28752;48.266;7.402;2022-10-28T01:31:14;100066.94;;;13.07;100.00
43147;BME280;28752;48.266;7.402;2022-10-28T01:33:46;100072.97;;;13.09;100.00
43147;BME280;28752;48.266;7.402;2022-10-28T01:39:08;100072.41;;;13.05;100.00
43147;BME280;28752;48.266;7.402;2022-10-28T01:46:59;100076.31;;;13.11;100.00
43147;BME280;28752;48.266;7.402;2022-10-28T01:52:02;100078.00;;;13.12;100.00
43147;BME280;28752;48.266;7.402;2022-10-28T01:54:31;100070.03;;;13.12;100.00
43147;BME280;28752;48.266;7.402;2022-10-28T01:57:00;100074.59;;;13.20;100.00
43147;BME280;28752;48.266;7.402;2022-10-28T01:59:28;100070.94;;;13.21;100.00
43147;BME280;28752;48.266;7.402;2022-10-28T02:01:54;100060.31;;;13.21;100.00
43147;BME280;28752;48.266;7.402;2022-10-28T02:04:20;100066.56;;;13.29;100.00
43147;BME280;28752;48.266;7.402;2022-10-28T02:06:50;100075.09;;;13.33;100.00
43147;BME280;28752;48.266;7.402;2022-10-28T02:17:29;100044.88;;;13.34;100.00
43147;BME280;28752;48.266;7.402;2022-10-28T02:25:49;100037.16;;;13.41;100.00
43147;BME280;28752;48.266;7.402;2022-10-28T02:28:22;100056.53;;;13.51;100.00
43147;BME280;28752;48.266;7.402;2022-10-28T02:33:17;100047.88;;;13.49;100.00
43147;BME280;28752;48.266;7.402;2022-10-28T02:35:49;100055.72;;;13.50;100.00
43147;BME280;28752;48.266;7.402;2022-10-28T02:38:24;100053.56;;;13.54;100.00
43147;BME280;28752;48.266;7.402;2022-10-28T02:40:52;100052.44;;;13.57;100.00
43147;BME280;28752;48.266;7.402;2022-10-28T02:43:23;100048.09;;;13.56;100.00
43147;BME280;28752;48.266;7.402;2022-10-28T02:45:53;100032.50;;;13.43;100.00
43147;BME280;28752;48.266;7.402;2022-10-28T02:48:30;100055.25;;;13.55;100.00
43147;BME280;28752;48.266;7.402;2022-10-28T02:51:06;100042.56;;;13.49;100.00
43147;BME280;28752;48.266;7.402;2022-10-28T02:53:40;100043.09;;;13.53;100.00
43147;BME280;28752;48.266;7.402;2022-10-28T02:56:10;100031.91;;;13.49;100.00
43147;BME280;28752;48.266;7.402;2022-10-28T02:58:39;100033.28;;;13.53;100.00
43147;BME280;28752;48.266;7.402;2022-10-28T03:01:05;100036.94;;;13.52;100.00
43147;BME280;28752;48.266;7.402;2022-10-28T03:03:31;100031.47;;;13.54;100.00
43147;BME280;28752;48.266;7.402;2022-10-28T03:05:56;100017.78;;;13.48;100.00
43147;BME280;28752;48.266;7.402;2022-10-28T03:08:21;100033.66;;;13.58;100.00
43147;BME280;28752;48.266;7.402;2022-10-28T03:10:49;100029.19;;;13.59;100.00
43147;BME280;28752;48.266;7.402;2022-10-28T03:13:15;100030.47;;;13.55;100.00
43147;BME280;28752;48.266;7.402;2022-10-28T03:15:40;100020.97;;;13.52;100.00
43147;BME280;28752;48.266;7.402;2022-10-28T03:18:06;100025.84;;;13.57;100.00
43147;BME280;28752;48.266;7.402;2022-10-28T03:20:31;100037.00;;;13.60;100.00
43147;BME280;28752;48.266;7.402;2022-10-28T03:22:56;100025.31;;;13.53;100.00
43147;BME280;28752;48.266;7.402;2022-10-28T03:25:22;100034.34;;;13.60;100.00
43147;BME280;28752;48.266;7.402;2022-10-28T03:27:48;100028.50;;;13.57;100.00
43147;BME280;28752;48.266;7.402;2022-10-28T03:30:13;100027.06;;;13.62;100.00
43147;BME280;28752;48.266;7.402;2022-10-28T03:32:42;100031.25;;;13.65;100.00
43147;BME280;28752;48.266;7.402;2022-10-28T03:35:07;100021.44;;;13.65;100.00
43147;BME280;28752;48.266;7.402;2022-10-28T03:37:33;100005.78;;;13.62;100.00
43147;BME280;28752;48.266;7.402;2022-10-28T03:39:58;100017.66;;;13.68;100.00
43147;BME280;28752;48.266;7.402;2022-10-28T03:42:26;100017.34;;;13.71;100.00
43147;BME280;28752;48.266;7.402;2022-10-28T03:44:52;100017.03;;;13.74;100.00
43147;BME280;28752;48.266;7.402;2022-10-28T03:47:17;100011.72;;;13.74;100.00
43147;BME280;28752;48.266;7.402;2022-10-28T03:49:42;100014.38;;;13.74;100.00
43147;BME280;28752;48.266;7.402;2022-10-28T03:52:08;100020.84;;;13.72;100.00
43147;BME280;28752;48.266;7.402;2022-10-28T03:54:33;100001.22;;;13.73;100.00
43147;BME280;28752;48.266;7.402;2022-10-28T03:56:58;99987.97;;;13.63;100.00
43147;BME280;28752;48.266;7.402;2022-10-28T03:59:24;100001.22;;;13.73;100.00
43147;BME280;28752;48.266;7.402;2022-10-28T04:01:49;99974.16;;;13.59;100.00
43147;BME280;28752;48.266;7.402;2022-10-28T04:04:14;99994.00;;;13.65;100.00
43147;BME280;28752;48.266;7.402;2022-10-28T04:06:40;99997.72;;;13.72;100.00
43147;BME280;28752;48.266;7.402;2022-10-28T04:09:05;99989.66;;;13.64;100.00
43147;BME280;28752;48.266;7.402;2022-10-28T04:11:31;99991.03;;;13.68;100.00
43147;BME280;28752;48.266;7.402;2022-10-28T04:13:56;99978.78;;;13.57;100.00
43147;BME280;28752;48.266;7.402;2022-10-28T04:16:21;99993.47;;;13.61;100.00
43147;BME280;28752;48.266;7.402;2022-10-28T04:18:47;99972.94;;;13.54;100.00
43147;BME280;28752;48.266;7.402;2022-10-28T04:21:12;99993.31;;;13.63;100.00
43147;BME280;28752;48.266;7.402;2022-10-28T04:23:37;99978.31;;;13.62;100.00
43147;BME280;28752;48.266;7.402;2022-10-28T04:26:03;99981.13;;;13.60;100.00
43147;BME280;28752;48.266;7.402;2022-10-28T04:28:29;99988.97;;;13.62;100.00
43147;BME280;28752;48.266;7.402;2022-10-28T04:30:54;99973.31;;;13.59;100.00
43147;BME280;28752;48.266;7.402;2022-10-28T04:33:19;99986.84;;;13.65;100.00
43147;BME280;28752;48.266;7.402;2022-10-28T04:35:44;99998.16;;;13.67;100.00
43147;BME280;28752;48.266;7.402;2022-10-28T04:38:11;100011.09;;;13.62;100.00
43147;BME280;28752;48.266;7.402;2022-10-28T04:40:36;100020.06;;;13.61;100.00
43147;BME280;28752;48.266;7.402;2022-10-28T04:43:02;100020.38;;;13.58;100.00
43147;BME280;28752;48.266;7.402;2022-10-28T04:45:27;99991.19;;;13.48;100.00
43147;BME280;28752;48.266;7.402;2022-10-28T04:47:57;100001.28;;;13.63;100.00
43147;BME280;28752;48.266;7.402;2022-10-28T04:50:23;100001.44;;;13.61;100.00
43147;BME280;28752;48.266;7.402;2022-10-28T04:52:48;99965.88;;;13.44;100.00
43147;BME280;28752;48.266;7.402;2022-10-28T04:55:14;99993.31;;;13.63;100.00
43147;BME280;28752;48.266;7.402;2022-10-28T04:57:39;99982.28;;;13.58;100.00
43147;BME280;28752;48.266;7.402;2022-10-28T05:00:05;99985.94;;;13.57;100.00
43147;BME280;28752;48.266;7.402;2022-10-28T05:02:30;99993.38;;;13.53;100.00
43147;BME280;28752;48.266;7.402;2022-10-28T05:04:56;99988.91;;;13.54;100.00
43147;BME280;28752;48.266;7.402;2022-10-28T05:07:24;99984.09;;;13.57;100.00
43147;BME280;28752;48.266;7.402;2022-10-28T05:09:49;99981.44;;;13.57;100.00
43147;BME280;28752;48.266;7.402;2022-10-28T05:12:15;99989.34;;;13.49;100.00
43147;BME280;28752;48.266;7.402;2022-10-28T05:14:40;99996.66;;;13.47;100.00
43147;BME280;28752;48.266;7.402;2022-10-28T05:17:07;99991.63;;;13.44;100.00
43147;BME280;28752;48.266;7.402;2022-10-28T05:19:32;99972.25;;;13.33;100.00
43147;BME280;28752;48.266;7.402;2022-10-28T05:21:58;99986.91;;;13.38;100.00
43147;BME280;28752;48.266;7.402;2022-10-28T05:24:23;99983.72;;;13.34;100.00
43147;BME280;28752;48.266;7.402;2022-10-28T05:26:48;99974.47;;;13.28;100.00
43147;BME280;28752;48.266;7.402;2022-10-28T05:29:14;99994.47;;;13.32;100.00
43147;BME280;28752;48.266;7.402;2022-10-28T05:31:39;99976.75;;;13.23;100.00
43147;BME280;28752;48.266;7.402;2022-10-28T05:34:05;99971.13;;;13.26;100.00
43147;BME280;28752;48.266;7.402;2022-10-28T05:36:30;99989.16;;;13.32;100.00
43147;BME280;28752;48.266;7.402;2022-10-28T05:38:55;99986.06;;;13.37;100.00
43147;BME280;28752;48.266;7.402;2022-10-28T05:41:21;99988.72;;;13.37;100.00
43147;BME280;28752;48.266;7.402;2022-10-28T05:43:46;99978.66;;;13.31;100.00
43147;BME280;28752;48.266;7.402;2022-10-28T05:46:11;99981.47;;;13.29;100.00
43147;BME280;28752;48.266;7.402;2022-10-28T05:48:37;99979.63;;;13.30;100.00
43147;BME280;28752;48.266;7.402;2022-10-28T05:51:02;99978.50;;;13.32;100.00
43147;BME280;28752;48.266;7.402;2022-10-28T05:53:28;99982.44;;;13.28;100.00
43147;BME280;28752;48.266;7.402;2022-10-28T05:55:53;99968.63;;;13.25;100.00
43147;BME280;28752;48.266;7.402;2022-10-28T05:58:18;99974.09;;;13.23;100.00
43147;BME280;28752;48.266;7.402;2022-10-28T06:00:44;99956.44;;;13.22;100.00
43147;BME280;28752;48.266;7.402;2022-10-28T06:03:10;99936.69;;;13.07;100.00
43147;BME280;28752;48.266;7.402;2022-10-28T06:05:38;99961.41;;;13.17;100.00
43147;BME280;28752;48.266;7.402;2022-10-28T06:08:04;99972.72;;;13.19;100.00
43147;BME280;28752;48.266;7.402;2022-10-28T06:10:30;99974.00;;;13.15;100.00
43147;BME280;28752;48.266;7.402;2022-10-28T06:12:56;99991.16;;;13.21;100.00
43147;BME280;28752;48.266;7.402;2022-10-28T06:15:21;99994.69;;;13.21;100.00
43147;BME280;28752;48.266;7.402;2022-10-28T06:17:50;99985.19;;;13.19;100.00
43147;BME280;28752;48.266;7.402;2022-10-28T06:20:16;99991.16;;;13.21;100.00
43147;BME280;28752;48.266;7.402;2022-10-28T06:22:52;99987.47;;;13.31;100.00
43147;BME280;28752;48.266;7.402;2022-10-28T06:25:19;99990.13;;;13.31;100.00
43147;BME280;28752;48.266;7.402;2022-10-28T06:27:51;99980.34;;;13.32;100.00
43147;BME280;28752;48.266;7.402;2022-10-28T06:30:17;99989.16;;;13.32;100.00
43147;BME280;28752;48.266;7.402;2022-10-28T06:32:42;99985.66;;;13.32;100.00
43147;BME280;28752;48.266;7.402;2022-10-28T06:35:07;100001.88;;;13.39;100.00
43147;BME280;28752;48.266;7.402;2022-10-28T06:37:33;99975.44;;;13.37;100.00
43147;BME280;28752;48.266;7.402;2022-10-28T06:39:58;99989.34;;;13.49;100.00
43147;BME280;28752;48.266;7.402;2022-10-28T06:42:25;99973.69;;;13.46;100.00
43147;BME280;28752;48.266;7.402;2022-10-28T06:44:50;99986.84;;;13.65;100.00
43147;BME280;28752;48.266;7.402;2022-10-28T06:47:16;99994.44;;;13.78;100.00
43147;BME280;28752;48.266;7.402;2022-10-28T06:49:41;100007.13;;;13.84;100.00
43147;BME280;28752;48.266;7.402;2022-10-28T06:52:07;100007.22;;;13.93;100.00
43147;BME280;28752;48.266;7.402;2022-10-28T06:54:32;100006.00;;;14.05;100.00
43147;BME280;28752;48.266;7.402;2022-10-28T06:56:57;99988.88;;;14.08;100.00
43147;BME280;28752;48.266;7.402;2022-10-28T06:59:23;99997.28;;;14.21;100.00
43147;BME280;28752;48.266;7.402;2022-10-28T07:01:48;100005.81;;;14.25;100.00
43147;BME280;28752;48.266;7.402;2022-10-28T07:04:14;100019.16;;;14.33;100.00
43147;BME280;28752;48.266;7.402;2022-10-28T07:06:39;100012.06;;;14.42;100.00
43147;BME280;28752;48.266;7.402;2022-10-28T07:09:05;100013.44;;;14.46;100.00
43147;BME280;28752;48.266;7.402;2022-10-28T07:11:31;100014.16;;;14.56;99.88
43147;BME280;28752;48.266;7.402;2022-10-28T07:13:57;100015.06;;;14.65;99.48
43147;BME280;28752;48.266;7.402;2022-10-28T07:16:23;100019.75;;;14.71;98.70
43147;BME280;28752;48.266;7.402;2022-10-28T07:18:48;100017.31;;;14.78;98.95
43147;BME280;28752;48.266;7.402;2022-10-28T07:21:14;100006.81;;;14.76;98.20
43147;BME280;28752;48.266;7.402;2022-10-28T07:23:39;100012.84;;;14.86;97.85
43147;BME280;28752;48.266;7.402;2022-10-28T07:26:05;100031.09;;;14.99;97.39
43147;BME280;28752;48.266;7.402;2022-10-28T07:28:30;100028.09;;;15.02;97.88
43147;BME280;28752;48.266;7.402;2022-10-28T07:31:00;100007.91;;;15.00;96.86
43147;BME280;28752;48.266;7.402;2022-10-28T07:33:26;100023.00;;;15.17;96.78
43147;BME280;28752;48.266;7.402;2022-10-28T07:35:51;100023.69;;;15.27;96.01
43147;BME280;28752;48.266;7.402;2022-10-28T07:38:16;100026.56;;;15.42;95.46
43147;BME280;28752;48.266;7.402;2022-10-28T07:40:42;100021.72;;;15.38;95.71
43147;BME280;28752;48.266;7.402;2022-10-28T07:43:07;100039.25;;;15.49;94.38
43147;BME280;28752;48.266;7.402;2022-10-28T07:45:34;100027.75;;;15.48;94.25
43147;BME280;28752;48.266;7.402;2022-10-28T07:47:59;100043.09;;;15.54;94.46
43147;BME280;28752;48.266;7.402;2022-10-28T07:50:25;100048.97;;;15.58;94.20
43147;BME280;28752;48.266;7.402;2022-10-28T07:52:50;100034.59;;;15.51;94.81
43147;BME280;28752;48.266;7.402;2022-10-28T07:55:15;100055.63;;;15.54;95.57
43147;BME280;28752;48.266;7.402;2022-10-28T07:57:41;100039.41;;;15.47;95.99
43147;BME280;28752;48.266;7.402;2022-10-28T08:00:08;100055.78;;;15.60;95.30
43147;BME280;28752;48.266;7.402;2022-10-28T08:02:34;100052.47;;;15.67;95.46
43147;BME280;28752;48.266;7.402;2022-10-28T08:04:59;100050.00;;;15.73;95.51
43147;BME280;28752;48.266;7.402;2022-10-28T08:07:26;100045.38;;;15.84;94.61
43147;BME280;28752;48.266;7.402;2022-10-28T08:09:52;100051.03;;;15.89;93.94
43147;BME280;28752;48.266;7.402;2022-10-28T08:12:17;100060.25;;;15.94;94.16
43147;BME280;28752;48.266;7.402;2022-10-28T08:14:43;100051.22;;;15.87;93.79
43147;BME280;28752;48.266;7.402;2022-10-28T08:17:08;100043.72;;;15.99;93.31
43147;BME280;28752;48.266;7.402;2022-10-28T08:19:34;100044.56;;;16.16;92.87
43147;BME280;28752;48.266;7.402;2022-10-28T08:21:59;100047.38;;;16.31;92.33
43147;BME280;28752;48.266;7.402;2022-10-28T08:24:26;100040.34;;;16.46;91.61
43147;BME280;28752;48.266;7.402;2022-10-28T08:26:51;100043.00;;;16.55;90.91
43147;BME280;28752;48.266;7.402;2022-10-28T08:29:17;100046.84;;;16.60;90.04
43147;BME280;28752;48.266;7.402;2022-10-28T08:31:42;100037.47;;;16.56;90.54
43147;BME280;28752;48.266;7.402;2022-10-28T08:34:07;100052.00;;;16.70;90.42
43147;BME280;28752;48.266;7.402;2022-10-28T08:36:33;100052.16;;;16.93;89.78
43147;BME280;28752;48.266;7.402;2022-10-28T08:38:58;100048.22;;;17.20;88.81
43147;BME280;28752;48.266;7.402;2022-10-28T08:41:38;100056.41;;;17.50;87.46
43147;BME280;28752;48.266;7.402;2022-10-28T08:47:08;100053.88;;;17.57;86.03
43147;BME280;28752;48.266;7.402;2022-10-28T08:49:32;100057.91;;;17.53;84.79
43147;BME280;28752;48.266;7.402;2022-10-28T08:52:10;100052.09;;;17.49;84.99
43147;BME280;28752;48.266;7.402;2022-10-28T08:54:47;100059.59;;;17.46;85.23
43147;BME280;28752;48.266;7.402;2022-10-28T08:57:21;100052.81;;;17.35;85.43
43147;BME280;28752;48.266;7.402;2022-10-28T08:59:50;100056.84;;;17.31;86.24
43147;BME280;28752;48.266;7.402;2022-10-28T09:02:25;100054.13;;;17.39;86.81
43147;BME280;28752;48.266;7.402;2022-10-28T09:07:21;100066.31;;;17.73;85.96
43147;BME280;28752;48.266;7.402;2022-10-28T09:09:49;100058.69;;;17.93;84.51
43147;BME280;28752;48.266;7.402;2022-10-28T09:12:46;100054.59;;;18.05;84.19
43147;BME280;28752;48.266;7.402;2022-10-28T09:23:07;100028.53;;;18.37;81.16
43147;BME280;28752;48.266;7.402;2022-10-28T09:26:06;100047.66;;;18.49;80.65
43147;BME280;28752;48.266;7.402;2022-10-28T09:31:35;100041.03;;;18.45;80.80
43147;BME280;28752;48.266;7.402;2022-10-28T09:37:02;100047.78;;;18.56;79.82
43147;BME280;28752;48.266;7.402;2022-10-28T09:39:56;100046.28;;;18.53;80.68
43147;BME280;28752;48.266;7.402;2022-10-28T09:42:31;100047.22;;;18.60;80.18
43147;BME280;28752;48.266;7.402;2022-10-28T09:45:03;100056.09;;;18.61;80.62
43147;BME280;28752;48.266;7.402;2022-10-28T09:47:41;100044.19;;;18.63;80.18
43147;BME280;28752;48.266;7.402;2022-10-28T09:50:15;100056.66;;;18.71;79.88
43147;BME280;28752;48.266;7.402;2022-10-28T09:55:21;100030.22;;;18.83;79.64
43147;BME280;28752;48.266;7.402;2022-10-28T09:57:47;100045.44;;;19.06;79.01
43147;BME280;28752;48.266;7.402;2022-10-28T10:00:15;100040.50;;;19.09;79.99
43147;BME280;28752;48.266;7.402;2022-10-28T10:02:41;100042.34;;;19.24;79.77
43147;BME280;28752;48.266;7.402;2022-10-28T10:05:13;100048.06;;;19.35;80.05
43147;BME280;28752;48.266;7.402;2022-10-28T10:07:51;100036.00;;;19.46;79.69
43147;BME280;28752;48.266;7.402;2022-10-28T10:10:21;100044.00;;;19.61;78.49
43147;BME280;28752;48.266;7.402;2022-10-28T10:12:49;100041.84;;;19.71;78.81
43147;BME280;28752;48.266;7.402;2022-10-28T10:15:27;100048.16;;;19.79;78.35
43147;BME280;28752;48.266;7.402;2022-10-28T10:17:57;100043.69;;;19.86;78.78
43147;BME280;28752;48.266;7.402;2022-10-28T10:20:23;100052.72;;;20.00;79.54
43147;BME280;28752;48.266;7.402;2022-10-28T10:22:49;100047.44;;;20.13;77.15
43147;BME280;28752;48.266;7.402;2022-10-28T10:27:54;100037.84;;;20.54;69.64
43147;BME280;28752;48.266;7.402;2022-10-28T10:30:25;100033.22;;;20.69;67.89
43147;BME280;28752;48.266;7.402;2022-10-28T10:32:53;100038.28;;;20.86;65.55
43147;BME280;28752;48.266;7.402;2022-10-28T10:35:26;100048.72;;;21.02;65.75
43147;BME280;28752;48.266;7.402;2022-10-28T10:37:55;100046.56;;;21.26;63.53
43147;BME280;28752;48.266;7.402;2022-10-28T10:40:23;100046.69;;;21.53;63.93
43147;BME280;28752;48.266;7.402;2022-10-28T10:42:49;100028.91;;;21.78;63.37
43147;BME280;28752;48.266;7.402;2022-10-28T10:47:40;100016.72;;;22.09;59.74
43147;BME280;28752;48.266;7.402;2022-10-28T10:52:57;100034.59;;;22.37;58.08
43147;BME280;28752;48.266;7.402;2022-10-28T10:57:58;100019.16;;;22.78;58.74
43147;BME280;28752;48.266;7.402;2022-10-28T11:00:30;100013.34;;;22.74;56.91
43147;BME280;28752;48.266;7.402;2022-10-28T11:02:57;100020.66;;;22.67;57.53
43147;BME280;28752;48.266;7.402;2022-10-28T11:05:23;100038.28;;;22.63;58.07
43147;BME280;28752;48.266;7.402;2022-10-28T11:07:49;100035.00;;;22.47;57.39
43147;BME280;28752;48.266;7.402;2022-10-28T11:10:24;100042.47;;;22.39;58.25
43147;BME280;28752;48.266;7.402;2022-10-28T11:13:03;100028.59;;;22.35;58.21
43147;BME280;28752;48.266;7.402;2022-10-28T11:15:30;100043.88;;;22.21;58.54
43147;BME280;28752;48.266;7.402;2022-10-28T11:21:09;100025.03;;;22.34;58.60
43147;BME280;28752;48.266;7.402;2022-10-28T11:23:48;100031.03;;;22.57;58.08
43147;BME280;28752;48.266;7.402;2022-10-28T11:26:20;100015.44;;;22.72;57.59
43147;BME280;28752;48.266;7.402;2022-10-28T11:29:05;100007.31;;;22.79;56.53
43147;BME280;28752;48.266;7.402;2022-10-28T11:45:52;99981.91;;;23.00;56.85
43147;BME280;28752;48.266;7.402;2022-10-28T11:48:41;99984.19;;;23.10;57.98
43147;BME280;28752;48.266;7.402;2022-10-28T11:53:51;99978.56;;;23.04;58.96
43147;BME280;28752;48.266;7.402;2022-10-28T11:56:44;99976.72;;;23.05;59.16
43147;BME280;28752;48.266;7.402;2022-10-28T12:02:25;99970.25;;;23.06;58.11
43147;BME280;28752;48.266;7.402;2022-10-28T12:05:26;99968.63;;;22.98;55.37
43147;BME280;28752;48.266;7.402;2022-10-28T12:11:02;99956.56;;;23.01;56.70
43147;BME280;28752;48.266;7.402;2022-10-28T12:13:41;99956.56;;;23.01;56.78
43147;BME280;28752;48.266;7.402;2022-10-28T12:19:03;99947.00;;;22.98;55.19
43147;BME280;28752;48.266;7.402;2022-10-28T12:21:35;99961.16;;;23.00;56.06
43147;BME280;28752;48.266;7.402;2022-10-28T12:24:13;99968.41;;;23.00;55.72
43147;BME280;28752;48.266;7.402;2022-10-28T12:26:47;99966.72;;;23.05;56.28
43147;BME280;28752;48.266;7.402;2022-10-28T12:31:43;99961.53;;;23.04;56.23
43147;BME280;28752;48.266;7.402;2022-10-28T12:34:13;99967.13;;;23.09;57.81
43147;BME280;28752;48.266;7.402;2022-10-28T12:36:51;99961.09;;;23.07;58.08
43147;BME280;28752;48.266;7.402;2022-10-28T12:39:29;99962.97;;;23.13;56.08
43147;BME280;28752;48.266;7.402;2022-10-28T12:44:57;99946.72;;;23.20;55.57
43147;BME280;28752;48.266;7.402;2022-10-28T12:50:24;99950.84;;;23.29;57.18
43147;BME280;28752;48.266;7.402;2022-10-28T12:55:50;99940.88;;;23.30;56.82
43147;BME280;28752;48.266;7.402;2022-10-28T13:01:03;99948.47;;;23.39;56.42
43147;BME280;28752;48.266;7.402;2022-10-28T13:03:32;99946.19;;;23.43;56.23
43147;BME280;28752;48.266;7.402;2022-10-28T13:26:55;99934.03;;;23.84;56.14
43147;BME280;28752;48.266;7.402;2022-10-28T13:29:23;99930.94;;;23.81;56.77
43147;BME280;28752;48.266;7.402;2022-10-28T13:31:51;99925.59;;;23.74;56.15
43147;BME280;28752;48.266;7.402;2022-10-28T13:34:19;99907.66;;;23.54;56.90
43147;BME280;28752;48.266;7.402;2022-10-28T13:36:53;99932.97;;;23.60;56.94
43147;BME280;28752;48.266;7.402;2022-10-28T13:57:39;99935.03;;;23.33;58.95
43147;BME280;28752;48.266;7.402;2022-10-28T14:05:23;99937.78;;;23.26;59.70
43147;BME280;28752;48.266;7.402;2022-10-28T14:07:58;99940.72;;;23.18;59.99
43147;BME280;28752;48.266;7.402;2022-10-28T14:10:30;99941.53;;;23.18;60.42
43147;BME280;28752;48.266;7.402;2022-10-28T14:13:01;99938.03;;;23.18;60.14
43147;BME280;28752;48.266;7.402;2022-10-28T14:15:33;99940.06;;;23.22;60.79
43147;BME280;28752;48.266;7.402;2022-10-28T14:18:05;99946.72;;;23.20;60.78
43147;BME280;28752;48.266;7.402;2022-10-28T14:33:37;99950.34;;;23.00;60.96
43147;BME280;28752;48.266;7.402;2022-10-28T14:47:41;99962.63;;;22.96;61.49
43147;BME280;28752;48.266;7.402;2022-10-28T14:50:22;99954.53;;;22.89;60.60
43147;BME280;28752;48.266;7.402;2022-10-28T14:52:49;99943.59;;;22.78;60.93
43147;BME280;28752;48.266;7.402;2022-10-28T14:55:34;99960.19;;;22.81;61.99
43147;BME280;28752;48.266;7.402;2022-10-28T15:00:43;99969.78;;;22.64;63.75
43147;BME280;28752;48.266;7.402;2022-10-28T15:03:13;99962.34;;;22.52;64.45
43147;BME280;28752;48.266;7.402;2022-10-28T15:05:38;99951.78;;;22.38;63.63
43147;BME280;28752;48.266;7.402;2022-10-28T15:08:04;99962.13;;;22.27;63.18
43147;BME280;28752;48.266;7.402;2022-10-28T15:10:31;99967.53;;;22.21;64.45
43147;BME280;28752;48.266;7.402;2022-10-28T15:13:00;99961.75;;;21.97;64.60
43147;BME280;28752;48.266;7.402;2022-10-28T15:15:28;99962.97;;;21.88;65.06
43147;BME280;28752;48.266;7.402;2022-10-28T15:17:54;99965.69;;;21.74;64.88
43147;BME280;28752;48.266;7.402;2022-10-28T15:20:24;99966.91;;;21.58;64.66
43147;BME280;28752;48.266;7.402;2022-10-28T15:22:51;99952.31;;;21.33;65.39
43147;BME280;28752;48.266;7.402;2022-10-28T15:25:19;99955.00;;;21.33;64.59
43147;BME280;28752;48.266;7.402;2022-10-28T15:27:46;99971.56;;;21.23;64.70
43147;BME280;28752;48.266;7.402;2022-10-28T15:30:22;99970.91;;;21.14;65.48
43147;BME280;28752;48.266;7.402;2022-10-28T15:32:49;99973.97;;;21.04;65.45
43147;BME280;28752;48.266;7.402;2022-10-28T15:37:55;99974.75;;;20.85;67.52
43147;BME280;28752;48.266;7.402;2022-10-28T15:40:26;99973.41;;;20.74;67.81
43147;BME280;28752;48.266;7.402;2022-10-28T15:43:05;99952.56;;;20.48;67.73
43147;BME280;28752;48.266;7.402;2022-10-28T15:45:34;99969.75;;;20.47;67.35
43147;BME280;28752;48.266;7.402;2022-10-28T15:48:01;99968.22;;;20.37;68.54
43147;BME280;28752;48.266;7.402;2022-10-28T15:50:35;99966.28;;;20.24;68.17
43147;BME280;28752;48.266;7.402;2022-10-28T15:55:36;99969.84;;;20.03;68.82
43147;BME280;28752;48.266;7.402;2022-10-28T16:00:53;99975.78;;;19.99;67.43
43147;BME280;28752;48.266;7.402;2022-10-28T16:03:47;99977.97;;;19.88;67.75
43147;BME280;28752;48.266;7.402;2022-10-28T16:08:44;99976.06;;;19.82;68.33
43147;BME280;28752;48.266;7.402;2022-10-28T16:11:16;99976.06;;;19.82;68.03
43147;BME280;28752;48.266;7.402;2022-10-28T16:13:47;99988.22;;;19.78;68.84
43147;BME280;28752;48.266;7.402;2022-10-28T16:16:22;99989.50;;;19.82;67.67
43147;BME280;28752;48.266;7.402;2022-10-28T16:18:51;99989.34;;;19.69;69.42